TAF Text Data
IDs:
Format:
Raw Decoded Include METAR

Data at: 2154 UTC 08 Aug 2020

KANB 081720Z 0818/0918 27004KT P6SM FEW040 SCT050
  FM090100 VRB03KT P6SM FEW035 SCT045
  FM091600 28005KT P6SM FEW040 SCT050